createdAt,value
2022-12-11T08:31:20.712Z,2.28
2022-12-11T08:33:48.623Z,3.85
2022-12-11T08:36:19.066Z,3.70
2022-12-11T08:38:46.961Z,2.65
2022-12-11T08:41:15.920Z,2.90
2022-12-11T08:43:43.109Z,1.63
2022-12-11T08:46:12.794Z,2.20
2022-12-11T08:48:41.719Z,3.13
2022-12-11T08:51:13.049Z,2.45
2022-12-11T08:53:40.348Z,1.90
2022-12-11T08:56:16.238Z,2.53
2022-12-11T08:58:44.466Z,1.70
2022-12-11T09:01:14.437Z,2.30
2022-12-11T09:03:42.039Z,1.92
2022-12-11T09:06:12.318Z,3.08
2022-12-11T09:08:39.573Z,2.40
2022-12-11T09:11:11.551Z,2.53
2022-12-11T09:13:39.776Z,2.72
2022-12-11T09:16:12.405Z,2.30
2022-12-11T09:21:11.120Z,2.67
2022-12-11T09:23:37.995Z,2.90
2022-12-11T09:26:11.123Z,2.63
2022-12-11T09:28:45.735Z,2.53
2022-12-11T09:31:17.112Z,5.07
2022-12-11T09:33:44.399Z,6.63
2022-12-11T09:36:12.323Z,23.95
2022-12-11T09:38:39.186Z,8.90
2022-12-11T09:41:20.706Z,6.60
2022-12-11T09:44:09.569Z,4.22
2022-12-11T09:46:37.917Z,4.32
2022-12-11T09:49:11.859Z,32.00
2022-12-11T09:52:02.128Z,45.65
2022-12-11T09:54:29.043Z,9.75
2022-12-11T09:57:04.943Z,5.15
2022-12-11T10:00:02.699Z,4.22
2022-12-11T10:02:40.868Z,3.78
2022-12-11T10:05:29.298Z,4.82
2022-12-11T10:08:05.856Z,8.15
2022-12-11T10:10:45.758Z,2.80
2022-12-11T10:13:31.429Z,3.20
2022-12-11T10:16:19.450Z,2.83
2022-12-11T10:18:48.716Z,3.85
2022-12-11T10:21:18.105Z,3.40
2022-12-11T10:24:05.768Z,2.50
2022-12-11T10:26:32.724Z,3.67
2022-12-11T10:29:01.174Z,4.45
2022-12-11T10:31:49.564Z,4.32
2022-12-11T10:34:36.027Z,4.13
2022-12-11T10:37:03.073Z,3.58
2022-12-11T10:39:30.131Z,3.88
2022-12-11T10:41:57.287Z,3.33
2022-12-11T10:44:29.404Z,3.63
2022-12-11T10:47:10.050Z,3.17
2022-12-11T10:49:38.828Z,3.25
2022-12-11T10:52:20.569Z,3.92
2022-12-11T10:54:59.294Z,2.78
2022-12-11T10:57:34.026Z,3.22
2022-12-11T11:00:01.213Z,3.53
2022-12-11T11:02:40.429Z,3.38
2022-12-11T11:05:27.821Z,3.28
2022-12-11T11:08:14.117Z,6.40
2022-12-11T11:11:01.541Z,4.85
2022-12-11T11:13:30.386Z,7.35
2022-12-11T11:16:06.857Z,4.60
2022-12-11T11:18:35.213Z,4.38
2022-12-11T11:21:03.641Z,5.35
2022-12-11T11:23:30.522Z,4.57
2022-12-11T11:26:09.054Z,5.13
2022-12-11T11:28:47.767Z,4.68
2022-12-11T11:31:16.934Z,5.63
2022-12-11T11:33:52.462Z,7.97
2022-12-11T11:36:25.479Z,5.40
2022-12-11T11:39:04.470Z,4.10
2022-12-11T11:41:47.054Z,3.72
2022-12-11T11:44:19.854Z,4.43
2022-12-11T11:46:54.555Z,4.18
2022-12-11T11:49:34.349Z,4.30
2022-12-11T11:52:17.816Z,4.32
2022-12-11T11:55:00.940Z,5.60
2022-12-11T11:57:48.598Z,5.13
2022-12-11T12:00:34.260Z,7.43
2022-12-11T12:03:14.060Z,4.63
2022-12-11T12:05:48.666Z,8.20
2022-12-11T12:08:39.679Z,7.72
2022-12-11T12:11:28.170Z,7.60
2022-12-11T12:14:12.844Z,7.43
2022-12-11T12:17:17.575Z,9.88
2022-12-11T12:20:06.373Z,6.32
2022-12-11T12:23:17.742Z,6.00
2022-12-11T12:25:55.905Z,5.85
2022-12-11T12:28:28.879Z,6.32
2022-12-11T12:31:02.594Z,6.28
2022-12-11T12:33:35.843Z,5.45
2022-12-11T12:36:25.128Z,6.38
2022-12-11T12:39:29.437Z,7.32
2022-12-11T12:42:24.058Z,5.93
2022-12-11T12:44:57.759Z,5.75
2022-12-11T12:47:32.213Z,6.68
2022-12-11T12:50:01.213Z,5.82
2022-12-11T12:52:40.796Z,6.20
2022-12-11T12:55:23.094Z,4.60
2022-12-11T12:58:00.723Z,5.10
2022-12-11T13:00:31.559Z,4.45
2022-12-11T13:03:01.434Z,4.30
2022-12-11T13:05:33.799Z,3.47
2022-12-11T13:08:06.287Z,3.80
2022-12-11T13:10:36.223Z,4.70
2022-12-11T13:13:05.334Z,5.03
2022-12-11T13:15:33.854Z,4.80
2022-12-11T13:18:03.407Z,6.65
2022-12-11T13:20:34.539Z,6.22
2022-12-11T13:23:07.166Z,6.60
2022-12-11T13:28:43.654Z,5.35
2022-12-11T13:31:19.821Z,5.72
2022-12-11T13:33:50.831Z,5.00
2022-12-11T13:36:24.526Z,4.38
2022-12-11T13:39:17.427Z,5.00
2022-12-11T13:41:48.532Z,4.43
2022-12-11T13:44:24.357Z,4.85
2022-12-11T13:46:52.997Z,4.40
2022-12-11T13:49:34.981Z,4.55
2022-12-11T13:52:03.106Z,3.87
2022-12-11T13:54:32.138Z,3.72
2022-12-11T13:57:01.724Z,3.42
2022-12-11T13:59:31.905Z,3.70
2022-12-11T14:02:10.081Z,4.47
2022-12-11T14:04:38.093Z,4.13
2022-12-11T14:07:08.219Z,4.40
2022-12-11T19:15:43.823Z,6.65
2022-12-11T19:18:11.435Z,7.90
2022-12-11T19:20:49.258Z,7.35
2022-12-11T19:23:16.900Z,8.32
2022-12-11T19:25:46.527Z,7.82
2022-12-11T19:28:14.019Z,7.70
2022-12-11T19:30:51.168Z,8.13
2022-12-11T19:33:18.006Z,10.30
2022-12-11T19:35:44.906Z,10.70
2022-12-11T19:38:12.895Z,8.80
2022-12-11T19:40:43.610Z,9.05
2022-12-11T19:43:11.069Z,9.10
2022-12-11T19:45:38.154Z,9.23
2022-12-11T19:48:05.911Z,9.70
2022-12-11T19:50:35.649Z,8.98
2022-12-11T19:53:05.433Z,10.27
2022-12-11T19:55:32.664Z,9.30
2022-12-11T19:57:59.494Z,7.85
2022-12-11T20:00:26.306Z,7.60
2022-12-11T20:02:53.257Z,7.30
2022-12-11T20:05:23.209Z,7.70
2022-12-11T20:07:50.090Z,7.55
2022-12-11T20:10:16.995Z,8.50
2022-12-11T20:12:43.923Z,8.93
2022-12-11T20:15:11.582Z,8.68
2022-12-11T20:17:43.269Z,8.65
2022-12-11T20:20:13.340Z,8.90
2022-12-11T20:22:40.159Z,8.63
2022-12-11T20:25:07.572Z,13.48
2022-12-11T20:27:34.745Z,28.15
2022-12-11T20:30:05.059Z,22.05
2022-12-11T20:32:33.323Z,18.83
2022-12-11T20:35:00.448Z,10.05
2022-12-11T20:37:29.023Z,12.98
2022-12-11T20:39:57.226Z,8.80
2022-12-11T20:42:25.455Z,10.52
2022-12-11T20:44:52.492Z,10.23
2022-12-11T20:47:19.957Z,9.77
2022-12-11T20:49:48.054Z,12.20
2022-12-11T20:52:16.077Z,9.82
2022-12-11T20:54:43.506Z,8.65
2022-12-11T20:57:10.875Z,9.43
2022-12-11T20:59:38.248Z,9.50
2022-12-11T21:02:08.623Z,8.70
2022-12-11T21:04:42.644Z,9.63
2022-12-11T21:07:10.342Z,8.30
2022-12-11T21:09:38.343Z,8.98
2022-12-11T21:12:06.617Z,8.32
2022-12-11T21:14:34.094Z,8.80
2022-12-11T21:17:01.387Z,8.35
2022-12-11T21:19:28.306Z,8.98
2022-12-11T21:21:56.078Z,9.48
2022-12-11T21:24:26.630Z,10.57
2022-12-11T21:26:55.931Z,9.90
2022-12-11T21:29:24.778Z,9.50
2022-12-11T21:31:51.947Z,8.80
2022-12-11T21:34:25.037Z,10.05
2022-12-11T21:36:57.027Z,13.15
2022-12-11T21:39:25.709Z,15.00
2022-12-11T21:41:53.224Z,13.20
2022-12-11T21:47:06.889Z,12.73
2022-12-11T21:49:33.737Z,13.95
2022-12-11T21:52:00.592Z,9.05
2022-12-11T21:54:27.467Z,10.18
2022-12-11T21:56:54.651Z,9.73
2022-12-11T21:59:21.606Z,8.50
2022-12-11T22:01:48.465Z,7.50
2022-12-11T22:04:17.609Z,8.20
2022-12-11T22:06:47.072Z,8.27
2022-12-11T22:09:17.223Z,9.10
2022-12-11T22:11:45.570Z,8.10
2022-12-11T22:14:14.249Z,8.32
2022-12-11T22:16:41.564Z,7.75
2022-12-11T22:19:08.608Z,8.93
2022-12-11T22:21:35.789Z,7.88
2022-12-11T22:24:02.795Z,8.02
2022-12-11T22:26:29.953Z,8.30
2022-12-11T22:28:57.959Z,10.30
2022-12-11T22:31:26.586Z,7.88
2022-12-11T22:33:55.265Z,7.55
2022-12-11T22:36:26.947Z,8.93
2022-12-11T22:38:54.734Z,7.53
2022-12-11T22:41:28.022Z,7.00
2022-12-11T22:46:24.731Z,7.15
2022-12-11T22:48:52.684Z,7.72
2022-12-11T22:51:20.376Z,7.25
2022-12-11T22:53:47.313Z,7.53
2022-12-11T22:56:14.720Z,7.75
2022-12-11T22:58:41.951Z,6.22
2022-12-11T23:01:17.397Z,7.10
2022-12-11T23:03:44.420Z,7.18
